sensor_id;sensor_type;location;lat;lon;timestamp;P1;durP1;ratioP1;P2;durP2;ratioP2
261;SDS011;114;48.260;10.988;2023-04-09T00:01:49;17.73;;;14.93;;
261;SDS011;114;48.260;10.988;2023-04-09T00:04:15;19.53;;;14.83;;
261;SDS011;114;48.260;10.988;2023-04-09T00:06:41;17.03;;;15.23;;
261;SDS011;114;48.260;10.988;2023-04-09T00:09:07;17.60;;;14.03;;
261;SDS011;114;48.260;10.988;2023-04-09T00:11:32;17.87;;;14.93;;
261;SDS011;114;48.260;10.988;2023-04-09T00:13:58;23.53;;;16.03;;
261;SDS011;114;48.260;10.988;2023-04-09T00:16:24;16.60;;;14.80;;
261;SDS011;114;48.260;10.988;2023-04-09T00:18:49;22.67;;;15.73;;
261;SDS011;114;48.260;10.988;2023-04-09T00:21:15;18.00;;;15.40;;
261;SDS011;114;48.260;10.988;2023-04-09T00:23:41;17.73;;;13.93;;
261;SDS011;114;48.260;10.988;2023-04-09T00:26:08;16.83;;;15.03;;
261;SDS011;114;48.260;10.988;2023-04-09T00:28:34;17.20;;;14.80;;
261;SDS011;114;48.260;10.988;2023-04-09T00:31:00;19.33;;;15.90;;
261;SDS011;114;48.260;10.988;2023-04-09T00:33:26;21.87;;;16.27;;
261;SDS011;114;48.260;10.988;2023-04-09T00:35:52;23.13;;;15.20;;
261;SDS011;114;48.260;10.988;2023-04-09T00:38:18;20.20;;;14.80;;
261;SDS011;114;48.260;10.988;2023-04-09T00:40:47;19.73;;;14.70;;
261;SDS011;114;48.260;10.988;2023-04-09T00:43:13;18.00;;;14.87;;
261;SDS011;114;48.260;10.988;2023-04-09T00:45:39;18.23;;;15.77;;
261;SDS011;114;48.260;10.988;2023-04-09T00:48:05;22.97;;;17.77;;
261;SDS011;114;48.260;10.988;2023-04-09T00:50:31;29.30;;;16.83;;
261;SDS011;114;48.260;10.988;2023-04-09T00:52:57;20.57;;;16.70;;
261;SDS011;114;48.260;10.988;2023-04-09T00:55:23;18.20;;;16.20;;
261;SDS011;114;48.260;10.988;2023-04-09T00:57:49;21.40;;;16.37;;
261;SDS011;114;48.260;10.988;2023-04-09T01:00:15;25.47;;;18.07;;
261;SDS011;114;48.260;10.988;2023-04-09T01:02:41;31.13;;;20.03;;
261;SDS011;114;48.260;10.988;2023-04-09T01:05:07;31.40;;;21.10;;
261;SDS011;114;48.260;10.988;2023-04-09T01:10:23;34.87;;;20.77;;
261;SDS011;114;48.260;10.988;2023-04-09T01:15:48;38.33;;;20.73;;
261;SDS011;114;48.260;10.988;2023-04-09T01:18:25;41.43;;;24.00;;
261;SDS011;114;48.260;10.988;2023-04-09T01:21:12;40.07;;;22.20;;
261;SDS011;114;48.260;10.988;2023-04-09T01:23:57;38.17;;;23.93;;
261;SDS011;114;48.260;10.988;2023-04-09T01:29:34;42.20;;;22.67;;
261;SDS011;114;48.260;10.988;2023-04-09T01:32:09;35.17;;;21.87;;
261;SDS011;114;48.260;10.988;2023-04-09T01:34:36;34.70;;;23.47;;
261;SDS011;114;48.260;10.988;2023-04-09T01:37:03;36.80;;;23.80;;
261;SDS011;114;48.260;10.988;2023-04-09T01:39:30;38.43;;;22.37;;
261;SDS011;114;48.260;10.988;2023-04-09T01:41:56;38.60;;;22.27;;
261;SDS011;114;48.260;10.988;2023-04-09T01:44:23;34.73;;;22.70;;
261;SDS011;114;48.260;10.988;2023-04-09T01:46:50;36.37;;;23.97;;
261;SDS011;114;48.260;10.988;2023-04-09T01:49:16;32.50;;;22.20;;
261;SDS011;114;48.260;10.988;2023-04-09T01:51:43;32.87;;;22.07;;
261;SDS011;114;48.260;10.988;2023-04-09T01:54:08;30.03;;;20.40;;
261;SDS011;114;48.260;10.988;2023-04-09T01:56:41;30.40;;;20.73;;
261;SDS011;114;48.260;10.988;2023-04-09T01:59:12;32.50;;;20.47;;
261;SDS011;114;48.260;10.988;2023-04-09T02:01:46;35.87;;;23.10;;
261;SDS011;114;48.260;10.988;2023-04-09T02:10:02;36.37;;;20.73;;
261;SDS011;114;48.260;10.988;2023-04-09T02:12:30;38.17;;;20.13;;
261;SDS011;114;48.260;10.988;2023-04-09T02:14:57;37.03;;;21.13;;
261;SDS011;114;48.260;10.988;2023-04-09T02:17:25;32.70;;;19.83;;
261;SDS011;114;48.260;10.988;2023-04-09T02:19:51;28.67;;;19.57;;
261;SDS011;114;48.260;10.988;2023-04-09T02:22:16;28.37;;;18.70;;
261;SDS011;114;48.260;10.988;2023-04-09T02:24:43;27.67;;;19.17;;
261;SDS011;114;48.260;10.988;2023-04-09T02:27:10;31.00;;;19.77;;
261;SDS011;114;48.260;10.988;2023-04-09T02:29:35;23.23;;;17.00;;
261;SDS011;114;48.260;10.988;2023-04-09T02:32:02;28.20;;;18.37;;
261;SDS011;114;48.260;10.988;2023-04-09T02:34:28;29.67;;;16.63;;
261;SDS011;114;48.260;10.988;2023-04-09T02:36:54;25.53;;;18.00;;
261;SDS011;114;48.260;10.988;2023-04-09T02:39:20;28.13;;;16.90;;
261;SDS011;114;48.260;10.988;2023-04-09T02:41:45;28.10;;;17.67;;
261;SDS011;114;48.260;10.988;2023-04-09T02:44:11;22.20;;;17.10;;
261;SDS011;114;48.260;10.988;2023-04-09T02:46:37;22.70;;;17.40;;
261;SDS011;114;48.260;10.988;2023-04-09T02:49:03;27.53;;;18.63;;
261;SDS011;114;48.260;10.988;2023-04-09T02:51:29;23.23;;;18.30;;
261;SDS011;114;48.260;10.988;2023-04-09T02:53:55;21.53;;;16.63;;
261;SDS011;114;48.260;10.988;2023-04-09T02:56:21;24.00;;;18.07;;
261;SDS011;114;48.260;10.988;2023-04-09T02:58:46;24.43;;;16.80;;
261;SDS011;114;48.260;10.988;2023-04-09T03:01:15;26.20;;;17.63;;
261;SDS011;114;48.260;10.988;2023-04-09T03:03:41;29.37;;;17.90;;
261;SDS011;114;48.260;10.988;2023-04-09T03:06:07;29.10;;;20.70;;
261;SDS011;114;48.260;10.988;2023-04-09T03:08:33;32.33;;;20.07;;
261;SDS011;114;48.260;10.988;2023-04-09T03:10:59;28.77;;;20.87;;
261;SDS011;114;48.260;10.988;2023-04-09T03:13:26;25.67;;;19.40;;
261;SDS011;114;48.260;10.988;2023-04-09T03:15:52;26.47;;;19.77;;
261;SDS011;114;48.260;10.988;2023-04-09T03:18:17;26.33;;;19.37;;
261;SDS011;114;48.260;10.988;2023-04-09T03:20:44;29.67;;;19.77;;
261;SDS011;114;48.260;10.988;2023-04-09T03:23:10;28.90;;;20.13;;
261;SDS011;114;48.260;10.988;2023-04-09T03:25:36;27.47;;;19.80;;
261;SDS011;114;48.260;10.988;2023-04-09T03:28:02;26.67;;;20.30;;
261;SDS011;114;48.260;10.988;2023-04-09T03:30:28;26.87;;;19.77;;
261;SDS011;114;48.260;10.988;2023-04-09T03:32:54;32.40;;;21.20;;
261;SDS011;114;48.260;10.988;2023-04-09T03:35:20;27.70;;;20.10;;
261;SDS011;114;48.260;10.988;2023-04-09T03:37:46;24.77;;;19.43;;
261;SDS011;114;48.260;10.988;2023-04-09T03:40:12;27.27;;;18.73;;
261;SDS011;114;48.260;10.988;2023-04-09T03:42:38;27.53;;;18.90;;
261;SDS011;114;48.260;10.988;2023-04-09T03:45:04;27.93;;;19.17;;
261;SDS011;114;48.260;10.988;2023-04-09T03:47:30;34.63;;;20.57;;
261;SDS011;114;48.260;10.988;2023-04-09T03:49:57;27.90;;;19.57;;
261;SDS011;114;48.260;10.988;2023-04-09T03:52:22;27.43;;;19.33;;
261;SDS011;114;48.260;10.988;2023-04-09T03:54:48;30.80;;;19.97;;
261;SDS011;114;48.260;10.988;2023-04-09T03:57:14;28.90;;;20.80;;
261;SDS011;114;48.260;10.988;2023-04-09T03:59:40;28.30;;;19.53;;
261;SDS011;114;48.260;10.988;2023-04-09T04:02:06;32.10;;;19.00;;
261;SDS011;114;48.260;10.988;2023-04-09T04:04:31;28.97;;;19.03;;
261;SDS011;114;48.260;10.988;2023-04-09T04:06:57;26.80;;;18.90;;
261;SDS011;114;48.260;10.988;2023-04-09T04:09:23;27.93;;;19.13;;
261;SDS011;114;48.260;10.988;2023-04-09T04:11:49;27.87;;;20.40;;
261;SDS011;114;48.260;10.988;2023-04-09T04:14:14;26.40;;;19.00;;
261;SDS011;114;48.260;10.988;2023-04-09T04:16:40;29.43;;;19.37;;
261;SDS011;114;48.260;10.988;2023-04-09T04:19:06;26.57;;;19.60;;
261;SDS011;114;48.260;10.988;2023-04-09T04:21:32;31.60;;;20.60;;
261;SDS011;114;48.260;10.988;2023-04-09T04:23:57;28.50;;;20.40;;
261;SDS011;114;48.260;10.988;2023-04-09T04:26:23;24.60;;;18.83;;
261;SDS011;114;48.260;10.988;2023-04-09T04:28:49;27.43;;;19.33;;
261;SDS011;114;48.260;10.988;2023-04-09T04:31:15;27.10;;;19.40;;
261;SDS011;114;48.260;10.988;2023-04-09T04:33:41;24.93;;;20.57;;
261;SDS011;114;48.260;10.988;2023-04-09T04:36:11;24.33;;;19.33;;
261;SDS011;114;48.260;10.988;2023-04-09T04:38:38;30.10;;;21.23;;
261;SDS011;114;48.260;10.988;2023-04-09T04:41:05;27.63;;;19.80;;
261;SDS011;114;48.260;10.988;2023-04-09T04:43:31;26.30;;;19.63;;
261;SDS011;114;48.260;10.988;2023-04-09T04:45:57;26.40;;;19.80;;
261;SDS011;114;48.260;10.988;2023-04-09T04:48:23;31.13;;;20.93;;
261;SDS011;114;48.260;10.988;2023-04-09T04:50:59;24.97;;;19.80;;
261;SDS011;114;48.260;10.988;2023-04-09T04:53:26;26.33;;;19.33;;
261;SDS011;114;48.260;10.988;2023-04-09T04:55:52;27.80;;;21.60;;
261;SDS011;114;48.260;10.988;2023-04-09T04:58:18;31.43;;;22.60;;
261;SDS011;114;48.260;10.988;2023-04-09T05:00:44;35.13;;;22.20;;
261;SDS011;114;48.260;10.988;2023-04-09T05:03:10;37.27;;;24.47;;
261;SDS011;114;48.260;10.988;2023-04-09T05:05:36;38.97;;;27.20;;
261;SDS011;114;48.260;10.988;2023-04-09T05:08:02;40.83;;;27.70;;
261;SDS011;114;48.260;10.988;2023-04-09T05:10:28;40.90;;;29.80;;
261;SDS011;114;48.260;10.988;2023-04-09T05:12:54;48.87;;;31.70;;
261;SDS011;114;48.260;10.988;2023-04-09T05:15:19;56.37;;;34.53;;
261;SDS011;114;48.260;10.988;2023-04-09T05:17:45;48.80;;;32.70;;
261;SDS011;114;48.260;10.988;2023-04-09T05:20:11;52.53;;;33.70;;
261;SDS011;114;48.260;10.988;2023-04-09T05:22:37;49.63;;;33.93;;
261;SDS011;114;48.260;10.988;2023-04-09T05:25:03;60.90;;;33.17;;
261;SDS011;114;48.260;10.988;2023-04-09T05:27:29;48.73;;;32.30;;
261;SDS011;114;48.260;10.988;2023-04-09T05:29:55;51.10;;;33.13;;
261;SDS011;114;48.260;10.988;2023-04-09T05:32:20;47.63;;;32.30;;
261;SDS011;114;48.260;10.988;2023-04-09T05:34:46;47.03;;;31.67;;
261;SDS011;114;48.260;10.988;2023-04-09T05:37:12;45.03;;;32.63;;
261;SDS011;114;48.260;10.988;2023-04-09T05:39:38;50.03;;;32.43;;
261;SDS011;114;48.260;10.988;2023-04-09T05:42:04;51.40;;;32.60;;
261;SDS011;114;48.260;10.988;2023-04-09T05:44:30;49.77;;;32.70;;
261;SDS011;114;48.260;10.988;2023-04-09T05:46:55;46.83;;;31.33;;
261;SDS011;114;48.260;10.988;2023-04-09T05:49:21;45.70;;;32.00;;
261;SDS011;114;48.260;10.988;2023-04-09T05:51:48;56.10;;;31.60;;
261;SDS011;114;48.260;10.988;2023-04-09T05:54:14;45.00;;;31.40;;
261;SDS011;114;48.260;10.988;2023-04-09T05:56:41;48.67;;;30.13;;
261;SDS011;114;48.260;10.988;2023-04-09T05:59:07;43.30;;;31.07;;
261;SDS011;114;48.260;10.988;2023-04-09T06:01:33;46.57;;;30.67;;
261;SDS011;114;48.260;10.988;2023-04-09T06:03:59;46.43;;;31.70;;
261;SDS011;114;48.260;10.988;2023-04-09T06:06:24;43.73;;;30.07;;
261;SDS011;114;48.260;10.988;2023-04-09T06:08:51;46.70;;;31.23;;
261;SDS011;114;48.260;10.988;2023-04-09T06:11:16;50.50;;;31.27;;
261;SDS011;114;48.260;10.988;2023-04-09T06:13:42;52.63;;;31.90;;
261;SDS011;114;48.260;10.988;2023-04-09T06:16:08;48.53;;;30.57;;
261;SDS011;114;48.260;10.988;2023-04-09T06:18:35;49.57;;;30.27;;
261;SDS011;114;48.260;10.988;2023-04-09T06:21:04;44.43;;;28.17;;
261;SDS011;114;48.260;10.988;2023-04-09T06:23:33;39.50;;;28.20;;
261;SDS011;114;48.260;10.988;2023-04-09T06:26:01;39.87;;;28.40;;
261;SDS011;114;48.260;10.988;2023-04-09T06:28:27;42.87;;;27.83;;
261;SDS011;114;48.260;10.988;2023-04-09T06:30:53;41.87;;;29.90;;
261;SDS011;114;48.260;10.988;2023-04-09T06:33:19;43.60;;;29.20;;
261;SDS011;114;48.260;10.988;2023-04-09T06:35:46;47.40;;;30.07;;
261;SDS011;114;48.260;10.988;2023-04-09T06:38:13;46.20;;;31.23;;
261;SDS011;114;48.260;10.988;2023-04-09T06:40:39;40.93;;;29.77;;
261;SDS011;114;48.260;10.988;2023-04-09T06:43:05;38.13;;;27.90;;
261;SDS011;114;48.260;10.988;2023-04-09T06:45:31;37.90;;;26.57;;
261;SDS011;114;48.260;10.988;2023-04-09T06:47:58;38.20;;;26.83;;
261;SDS011;114;48.260;10.988;2023-04-09T06:50:24;34.63;;;25.87;;
261;SDS011;114;48.260;10.988;2023-04-09T06:52:50;37.33;;;25.57;;
261;SDS011;114;48.260;10.988;2023-04-09T06:55:16;37.07;;;26.50;;
261;SDS011;114;48.260;10.988;2023-04-09T06:57:42;37.57;;;26.60;;
261;SDS011;114;48.260;10.988;2023-04-09T07:00:08;35.17;;;25.93;;
261;SDS011;114;48.260;10.988;2023-04-09T07:02:34;30.23;;;24.07;;
261;SDS011;114;48.260;10.988;2023-04-09T07:05:01;30.50;;;21.97;;
261;SDS011;114;48.260;10.988;2023-04-09T07:07:27;35.17;;;23.60;;
261;SDS011;114;48.260;10.988;2023-04-09T07:09:53;27.60;;;22.00;;
261;SDS011;114;48.260;10.988;2023-04-09T07:12:30;31.73;;;23.63;;
261;SDS011;114;48.260;10.988;2023-04-09T07:14:57;26.50;;;20.10;;
261;SDS011;114;48.260;10.988;2023-04-09T07:17:27;24.93;;;20.00;;
261;SDS011;114;48.260;10.988;2023-04-09T07:19:53;22.00;;;17.87;;
261;SDS011;114;48.260;10.988;2023-04-09T07:22:21;22.33;;;19.10;;
261;SDS011;114;48.260;10.988;2023-04-09T07:24:48;25.63;;;20.07;;
261;SDS011;114;48.260;10.988;2023-04-09T07:27:19;22.77;;;18.90;;
261;SDS011;114;48.260;10.988;2023-04-09T07:29:45;26.40;;;20.80;;
261;SDS011;114;48.260;10.988;2023-04-09T07:32:11;24.37;;;19.73;;
261;SDS011;114;48.260;10.988;2023-04-09T07:34:37;29.03;;;21.43;;
261;SDS011;114;48.260;10.988;2023-04-09T07:37:03;28.63;;;20.87;;
261;SDS011;114;48.260;10.988;2023-04-09T07:39:30;23.87;;;19.93;;
261;SDS011;114;48.260;10.988;2023-04-09T07:41:55;27.53;;;21.00;;
261;SDS011;114;48.260;10.988;2023-04-09T07:44:21;21.30;;;18.17;;
261;SDS011;114;48.260;10.988;2023-04-09T07:46:47;24.00;;;19.00;;
261;SDS011;114;48.260;10.988;2023-04-09T07:49:13;20.67;;;17.80;;
261;SDS011;114;48.260;10.988;2023-04-09T07:51:38;26.63;;;19.57;;
261;SDS011;114;48.260;10.988;2023-04-09T07:54:04;21.30;;;18.60;;
261;SDS011;114;48.260;10.988;2023-04-09T07:56:30;21.93;;;17.07;;
261;SDS011;114;48.260;10.988;2023-04-09T07:58:56;20.60;;;17.27;;
261;SDS011;114;48.260;10.988;2023-04-09T08:01:22;23.50;;;18.10;;
261;SDS011;114;48.260;10.988;2023-04-09T08:03:49;21.90;;;17.20;;
261;SDS011;114;48.260;10.988;2023-04-09T08:06:15;19.27;;;16.47;;
261;SDS011;114;48.260;10.988;2023-04-09T08:08:41;22.60;;;16.87;;
261;SDS011;114;48.260;10.988;2023-04-09T08:11:07;15.47;;;13.90;;
261;SDS011;114;48.260;10.988;2023-04-09T08:13:33;18.17;;;14.60;;
261;SDS011;114;48.260;10.988;2023-04-09T08:15:59;15.90;;;13.23;;
261;SDS011;114;48.260;10.988;2023-04-09T08:18:26;14.10;;;12.63;;
261;SDS011;114;48.260;10.988;2023-04-09T08:20:52;13.90;;;12.47;;
261;SDS011;114;48.260;10.988;2023-04-09T08:23:18;12.53;;;11.33;;
261;SDS011;114;48.260;10.988;2023-04-09T08:25:44;14.20;;;12.30;;
261;SDS011;114;48.260;10.988;2023-04-09T08:28:10;13.17;;;11.87;;
261;SDS011;114;48.260;10.988;2023-04-09T08:30:35;14.73;;;12.10;;
261;SDS011;114;48.260;10.988;2023-04-09T08:33:01;12.87;;;11.57;;
261;SDS011;114;48.260;10.988;2023-04-09T08:35:28;12.80;;;11.50;;
261;SDS011;114;48.260;10.988;2023-04-09T08:37:55;12.40;;;11.17;;
261;SDS011;114;48.260;10.988;2023-04-09T08:40:21;13.40;;;11.90;;
261;SDS011;114;48.260;10.988;2023-04-09T08:42:49;20.93;;;12.60;;
261;SDS011;114;48.260;10.988;2023-04-09T08:45:19;12.70;;;10.63;;
261;SDS011;114;48.260;10.988;2023-04-09T08:47:47;20.43;;;11.80;;
261;SDS011;114;48.260;10.988;2023-04-09T08:50:14;11.20;;;10.00;;
261;SDS011;114;48.260;10.988;2023-04-09T08:52:40;11.23;;;10.13;;
261;SDS011;114;48.260;10.988;2023-04-09T08:55:07;12.67;;;11.37;;
261;SDS011;114;48.260;10.988;2023-04-09T08:57:38;11.80;;;10.60;;
261;SDS011;114;48.260;10.988;2023-04-09T09:00:05;10.27;;;9.37;;
261;SDS011;114;48.260;10.988;2023-04-09T09:02:32;13.00;;;10.67;;
261;SDS011;114;48.260;10.988;2023-04-09T09:04:59;11.63;;;10.47;;
261;SDS011;114;48.260;10.988;2023-04-09T09:07:27;10.67;;;9.57;;
261;SDS011;114;48.260;10.988;2023-04-09T09:09:54;10.33;;;9.23;;
261;SDS011;114;48.260;10.988;2023-04-09T09:12:34;8.80;;;8.00;;
261;SDS011;114;48.260;10.988;2023-04-09T09:15:05;10.23;;;9.23;;
261;SDS011;114;48.260;10.988;2023-04-09T09:17:55;9.77;;;8.80;;
261;SDS011;114;48.260;10.988;2023-04-09T09:20:23;9.40;;;8.50;;
261;SDS011;114;48.260;10.988;2023-04-09T09:22:50;12.00;;;10.80;;
261;SDS011;114;48.260;10.988;2023-04-09T09:25:18;9.73;;;8.80;;
261;SDS011;114;48.260;10.988;2023-04-09T09:27:50;9.90;;;9.00;;
261;SDS011;114;48.260;10.988;2023-04-09T09:30:23;10.10;;;9.20;;
261;SDS011;114;48.260;10.988;2023-04-09T09:32:50;12.20;;;11.03;;
261;SDS011;114;48.260;10.988;2023-04-09T09:35:49;11.40;;;10.20;;
261;SDS011;114;48.260;10.988;2023-04-09T09:38:16;10.30;;;9.40;;
261;SDS011;114;48.260;10.988;2023-04-09T09:40:42;10.90;;;9.83;;
261;SDS011;114;48.260;10.988;2023-04-09T09:43:08;30.47;;;10.50;;
261;SDS011;114;48.260;10.988;2023-04-09T09:45:35;10.83;;;9.73;;
261;SDS011;114;48.260;10.988;2023-04-09T09:48:01;15.20;;;9.37;;
261;SDS011;114;48.260;10.988;2023-04-09T09:50:29;12.23;;;9.23;;
261;SDS011;114;48.260;10.988;2023-04-09T09:53:03;10.70;;;9.60;;
261;SDS011;114;48.260;10.988;2023-04-09T09:55:32;11.13;;;10.17;;
261;SDS011;114;48.260;10.988;2023-04-09T09:58:02;10.97;;;9.80;;
261;SDS011;114;48.260;10.988;2023-04-09T10:00:36;10.77;;;9.77;;
261;SDS011;114;48.260;10.988;2023-04-09T10:03:06;11.90;;;9.50;;
261;SDS011;114;48.260;10.988;2023-04-09T10:05:43;11.53;;;10.43;;
261;SDS011;114;48.260;10.988;2023-04-09T10:08:09;13.67;;;11.13;;
261;SDS011;114;48.260;10.988;2023-04-09T10:10:37;11.23;;;10.03;;
261;SDS011;114;48.260;10.988;2023-04-09T10:13:06;10.83;;;9.73;;
261;SDS011;114;48.260;10.988;2023-04-09T10:15:38;8.63;;;7.93;;
261;SDS011;114;48.260;10.988;2023-04-09T10:18:04;10.40;;;9.47;;
261;SDS011;114;48.260;10.988;2023-04-09T10:20:35;9.93;;;9.03;;
261;SDS011;114;48.260;10.988;2023-04-09T10:23:08;11.43;;;10.33;;
261;SDS011;114;48.260;10.988;2023-04-09T10:25:40;10.30;;;9.30;;
261;SDS011;114;48.260;10.988;2023-04-09T10:28:13;11.93;;;10.10;;
261;SDS011;114;48.260;10.988;2023-04-09T10:30:42;11.70;;;10.33;;
261;SDS011;114;48.260;10.988;2023-04-09T10:33:12;10.93;;;9.87;;
261;SDS011;114;48.260;10.988;2023-04-09T10:35:46;10.83;;;9.60;;
261;SDS011;114;48.260;10.988;2023-04-09T10:38:15;11.83;;;10.40;;
261;SDS011;114;48.260;10.988;2023-04-09T10:40:46;11.47;;;10.37;;
261;SDS011;114;48.260;10.988;2023-04-09T10:43:12;12.57;;;11.27;;
261;SDS011;114;48.260;10.988;2023-04-09T10:45:39;11.47;;;10.30;;
261;SDS011;114;48.260;10.988;2023-04-09T10:48:09;17.20;;;11.03;;
261;SDS011;114;48.260;10.988;2023-04-09T10:50:37;12.87;;;11.67;;
261;SDS011;114;48.260;10.988;2023-04-09T10:53:03;11.53;;;10.43;;
261;SDS011;114;48.260;10.988;2023-04-09T10:55:40;13.03;;;11.73;;
261;SDS011;114;48.260;10.988;2023-04-09T10:58:10;14.20;;;9.17;;
261;SDS011;114;48.260;10.988;2023-04-09T11:00:37;11.37;;;10.27;;
261;SDS011;114;48.260;10.988;2023-04-09T11:03:18;11.57;;;10.43;;
261;SDS011;114;48.260;10.988;2023-04-09T11:06:00;11.17;;;10.10;;
261;SDS011;114;48.260;10.988;2023-04-09T11:08:31;11.43;;;10.27;;
261;SDS011;114;48.260;10.988;2023-04-09T11:10:57;11.00;;;9.90;;
261;SDS011;114;48.260;10.988;2023-04-09T11:13:25;9.97;;;8.97;;
261;SDS011;114;48.260;10.988;2023-04-09T11:15:52;10.37;;;9.37;;
261;SDS011;114;48.260;10.988;2023-04-09T11:18:22;9.10;;;8.30;;
261;SDS011;114;48.260;10.988;2023-04-09T11:20:49;9.50;;;8.60;;
261;SDS011;114;48.260;10.988;2023-04-09T11:23:22;10.23;;;9.33;;
261;SDS011;114;48.260;10.988;2023-04-09T11:25:49;11.10;;;10.00;;
261;SDS011;114;48.260;10.988;2023-04-09T11:28:16;11.20;;;9.90;;
261;SDS011;114;48.260;10.988;2023-04-09T11:30:42;11.77;;;10.67;;
261;SDS011;114;48.260;10.988;2023-04-09T11:33:08;11.30;;;10.20;;
261;SDS011;114;48.260;10.988;2023-04-09T11:35:34;10.07;;;9.17;;
261;SDS011;114;48.260;10.988;2023-04-09T11:38:04;11.17;;;10.00;;
261;SDS011;114;48.260;10.988;2023-04-09T11:40:34;12.50;;;11.30;;
261;SDS011;114;48.260;10.988;2023-04-09T11:43:00;11.60;;;10.50;;
261;SDS011;114;48.260;10.988;2023-04-09T11:45:28;12.07;;;10.87;;
261;SDS011;114;48.260;10.988;2023-04-09T11:47:55;14.20;;;10.60;;
261;SDS011;114;48.260;10.988;2023-04-09T11:50:22;10.77;;;9.77;;
261;SDS011;114;48.260;10.988;2023-04-09T11:52:48;11.90;;;10.60;;
261;SDS011;114;48.260;10.988;2023-04-09T11:55:24;11.93;;;10.73;;
261;SDS011;114;48.260;10.988;2023-04-09T11:57:52;10.10;;;9.13;;
261;SDS011;114;48.260;10.988;2023-04-09T12:00:21;10.47;;;9.47;;
261;SDS011;114;48.260;10.988;2023-04-09T12:02:57;10.50;;;9.53;;
261;SDS011;114;48.260;10.988;2023-04-09T12:05:28;11.10;;;10.00;;
261;SDS011;114;48.260;10.988;2023-04-09T12:07:57;11.40;;;10.20;;
261;SDS011;114;48.260;10.988;2023-04-09T12:10:32;13.37;;;11.97;;
261;SDS011;114;48.260;10.988;2023-04-09T12:13:18;13.10;;;11.57;;
261;SDS011;114;48.260;10.988;2023-04-09T12:15:44;12.03;;;10.83;;
261;SDS011;114;48.260;10.988;2023-04-09T12:18:13;12.37;;;11.10;;
261;SDS011;114;48.260;10.988;2023-04-09T12:20:39;11.90;;;10.70;;
261;SDS011;114;48.260;10.988;2023-04-09T12:23:08;12.53;;;10.73;;
261;SDS011;114;48.260;10.988;2023-04-09T12:25:35;12.27;;;10.40;;
261;SDS011;114;48.260;10.988;2023-04-09T12:28:04;13.10;;;11.13;;
261;SDS011;114;48.260;10.988;2023-04-09T12:30:31;11.70;;;10.50;;
261;SDS011;114;48.260;10.988;2023-04-09T12:32:57;11.33;;;10.07;;
261;SDS011;114;48.260;10.988;2023-04-09T12:35:24;11.60;;;10.60;;
261;SDS011;114;48.260;10.988;2023-04-09T12:37:50;13.90;;;11.77;;
261;SDS011;114;48.260;10.988;2023-04-09T12:40:16;12.37;;;11.27;;
261;SDS011;114;48.260;10.988;2023-04-09T12:42:43;11.60;;;10.57;;
261;SDS011;114;48.260;10.988;2023-04-09T12:45:11;9.60;;;8.70;;
261;SDS011;114;48.260;10.988;2023-04-09T12:47:38;10.80;;;9.90;;
261;SDS011;114;48.260;10.988;2023-04-09T12:50:04;11.60;;;10.50;;
261;SDS011;114;48.260;10.988;2023-04-09T12:52:31;11.20;;;10.20;;
261;SDS011;114;48.260;10.988;2023-04-09T12:54:56;11.23;;;10.23;;
261;SDS011;114;48.260;10.988;2023-04-09T12:57:22;10.00;;;9.10;;
261;SDS011;114;48.260;10.988;2023-04-09T12:59:48;9.00;;;8.20;;
261;SDS011;114;48.260;10.988;2023-04-09T13:02:14;9.43;;;8.73;;
261;SDS011;114;48.260;10.988;2023-04-09T13:04:40;10.27;;;9.30;;
261;SDS011;114;48.260;10.988;2023-04-09T13:07:06;10.63;;;9.67;;
261;SDS011;114;48.260;10.988;2023-04-09T13:09:33;10.53;;;9.63;;
261;SDS011;114;48.260;10.988;2023-04-09T13:11:59;9.40;;;8.50;;
261;SDS011;114;48.260;10.988;2023-04-09T13:14:26;7.73;;;7.13;;
261;SDS011;114;48.260;10.988;2023-04-09T13:16:52;9.20;;;8.50;;
261;SDS011;114;48.260;10.988;2023-04-09T13:19:18;10.20;;;9.27;;
261;SDS011;114;48.260;10.988;2023-04-09T13:21:44;10.13;;;9.23;;
261;SDS011;114;48.260;10.988;2023-04-09T13:24:09;9.50;;;8.53;;
261;SDS011;114;48.260;10.988;2023-04-09T13:26:36;14.53;;;8.90;;
261;SDS011;114;48.260;10.988;2023-04-09T13:29:01;10.47;;;9.47;;
261;SDS011;114;48.260;10.988;2023-04-09T13:31:28;9.53;;;8.73;;
261;SDS011;114;48.260;10.988;2023-04-09T13:33:54;9.47;;;8.67;;
261;SDS011;114;48.260;10.988;2023-04-09T13:36:20;9.77;;;8.90;;
261;SDS011;114;48.260;10.988;2023-04-09T13:38:46;9.47;;;8.63;;
261;SDS011;114;48.260;10.988;2023-04-09T13:41:12;9.50;;;8.70;;
261;SDS011;114;48.260;10.988;2023-04-09T13:43:39;9.77;;;9.00;;
261;SDS011;114;48.260;10.988;2023-04-09T13:46:05;9.73;;;8.83;;
261;SDS011;114;48.260;10.988;2023-04-09T13:48:31;9.70;;;8.80;;
261;SDS011;114;48.260;10.988;2023-04-09T13:50:57;11.07;;;9.97;;
261;SDS011;114;48.260;10.988;2023-04-09T13:53:22;8.80;;;8.10;;
261;SDS011;114;48.260;10.988;2023-04-09T13:55:49;9.47;;;8.60;;
261;SDS011;114;48.260;10.988;2023-04-09T13:58:15;10.83;;;9.73;;
261;SDS011;114;48.260;10.988;2023-04-09T14:00:41;9.00;;;8.17;;
261;SDS011;114;48.260;10.988;2023-04-09T14:03:07;9.33;;;8.43;;
261;SDS011;114;48.260;10.988;2023-04-09T14:05:33;10.20;;;9.23;;
261;SDS011;114;48.260;10.988;2023-04-09T14:07:59;11.00;;;10.07;;
261;SDS011;114;48.260;10.988;2023-04-09T14:10:25;9.87;;;8.97;;
261;SDS011;114;48.260;10.988;2023-04-09T14:12:51;9.83;;;8.93;;
261;SDS011;114;48.260;10.988;2023-04-09T14:15:17;9.70;;;8.20;;
261;SDS011;114;48.260;10.988;2023-04-09T14:17:43;8.20;;;7.50;;
261;SDS011;114;48.260;10.988;2023-04-09T14:20:09;8.07;;;7.27;;
261;SDS011;114;48.260;10.988;2023-04-09T14:22:35;8.60;;;7.80;;
261;SDS011;114;48.260;10.988;2023-04-09T14:25:00;8.90;;;7.37;;
261;SDS011;114;48.260;10.988;2023-04-09T14:27:26;10.37;;;9.33;;
261;SDS011;114;48.260;10.988;2023-04-09T14:29:52;9.03;;;8.13;;
261;SDS011;114;48.260;10.988;2023-04-09T14:32:18;9.70;;;8.80;;
261;SDS011;114;48.260;10.988;2023-04-09T14:34:44;11.57;;;8.47;;
261;SDS011;114;48.260;10.988;2023-04-09T14:37:10;9.77;;;8.87;;
261;SDS011;114;48.260;10.988;2023-04-09T14:39:36;8.70;;;7.90;;
261;SDS011;114;48.260;10.988;2023-04-09T14:42:02;8.17;;;7.47;;
261;SDS011;114;48.260;10.988;2023-04-09T14:44:27;8.27;;;7.43;;
261;SDS011;114;48.260;10.988;2023-04-09T14:46:53;9.40;;;8.30;;
261;SDS011;114;48.260;10.988;2023-04-09T14:49:20;8.73;;;7.90;;
261;SDS011;114;48.260;10.988;2023-04-09T14:51:46;10.13;;;8.57;;
261;SDS011;114;48.260;10.988;2023-04-09T14:54:11;9.53;;;8.50;;
261;SDS011;114;48.260;10.988;2023-04-09T14:56:37;9.77;;;8.60;;
261;SDS011;114;48.260;10.988;2023-04-09T14:59:03;9.13;;;8.10;;
261;SDS011;114;48.260;10.988;2023-04-09T15:01:29;9.23;;;8.43;;
261;SDS011;114;48.260;10.988;2023-04-09T15:03:54;9.73;;;8.83;;
261;SDS011;114;48.260;10.988;2023-04-09T15:06:20;9.93;;;9.03;;
261;SDS011;114;48.260;10.988;2023-04-09T15:08:46;9.60;;;8.80;;
261;SDS011;114;48.260;10.988;2023-04-09T15:11:15;8.73;;;8.03;;
261;SDS011;114;48.260;10.988;2023-04-09T15:13:41;9.67;;;8.80;;
261;SDS011;114;48.260;10.988;2023-04-09T15:16:07;6.47;;;5.97;;
261;SDS011;114;48.260;10.988;2023-04-09T15:18:33;7.77;;;7.17;;
261;SDS011;114;48.260;10.988;2023-04-09T15:21:00;8.57;;;7.70;;
261;SDS011;114;48.260;10.988;2023-04-09T15:23:26;8.70;;;8.00;;